This is the latest recevied weather packets stored in our database for station/object EA5HRE-13. If no packets are shown the sender has not sent any weather packets the latest 10 day(s).
| Time | Temp. | Humidity | Pressure | Rain* | Wind** | Luminosity | Snow |
|---|---|---|---|---|---|---|---|
| 1788602234 | 29.44° C | 59% | 1021.6 hPa | 0 mm | - | - | - |
| 1788601334 | 28.89° C | 62% | 1021.7 hPa | 0 mm | - | - | - |
| 1788600432 | 28.33° C | 64% | 1021.7 hPa | 0 mm | - | - | - |
| 1788599534 | 27.78° C | 68% | 1021.7 hPa | 0 mm | - | - | - |
| 1788598630 | 27.22° C | 72% | 1021.6 hPa | 0 mm | - | - | - |
| 1788597729 | 26.67° C | 76% | 1021.5 hPa | 0 mm | - | - | - |
| 1788596829 | 25.56° C | 80% | 1021.3 hPa | 0 mm | - | - | - |
| 1788595928 | 25° C | 83% | 1021.2 hPa | 0 mm | - | - | - |
| 1788595027 | 25° C | 86% | 1021.1 hPa | 0 mm | - | - | - |
| 1788594126 | 24.44° C | 89% | 1021.1 hPa | 0 mm | - | - | - |
| 1788593225 | 23.89° C | 91% | 1021 hPa | 0 mm | - | - | - |
| 1788592325 | 23.89° C | 93% | 1020.9 hPa | 0 mm | - | - | - |
| 1788591423 | 23.33° C | 95% | 1020.7 hPa | 0 mm | - | - | - |
| 1788590523 | 23.33° C | 96% | 1020.5 hPa | 0 mm | - | - | - |
| 1788589622 | 23.33° C | 97% | 1020.3 hPa | 0 mm | - | - | - |
| 1788588721 | 23.33° C | 98% | 1020.2 hPa | 0 mm | - | - | - |
| 1788587820 | 23.33° C | 98% | 1020.1 hPa | 0 mm | - | - | - |
| 1788586018 | 23.33° C | 98% | 1020.1 hPa | 0 mm | - | - | - |
| 1788565297 | 23.89° C | 96% | 1019.8 hPa | 0 mm | - | - | - |
| 1788560793 | 25° C | 94% | 1019.6 hPa | 0 mm | - | - | - |
| 1788559892 | 25° C | 93% | 1019.6 hPa | 0 mm | - | - | - |
| 1788553578 | 26.11° C | 84% | 1019.5 hPa | 0 mm | - | - | - |
| 1788549974 | 26.67° C | 80% | 1018.8 hPa | 0 mm | - | - | - |
| 1788549073 | 27.22° C | 79% | 1018.6 hPa | 0 mm | - | - | - |
| 1788548173 | 27.22° C | 78% | 1018.4 hPa | 0 mm | - | - | - |
* Rain latest hour (hover to see other rain measurements)
** Current wind speed in m/s (hover to see current wind gust speed)